sensor_id;sensor_type;location;lat;lon;timestamp;P1;durP1;ratioP1;P2;durP2;ratioP2
54539;SDS011;40438;52.992;18.604;2022-11-02T00:01:00;73.35;;;27.05;;
54539;SDS011;40438;52.992;18.604;2022-11-02T00:03:33;70.60;;;29.13;;
54539;SDS011;40438;52.992;18.604;2022-11-02T00:05:58;72.18;;;27.50;;
54539;SDS011;40438;52.992;18.604;2022-11-02T00:08:24;72.88;;;29.13;;
54539;SDS011;40438;52.992;18.604;2022-11-02T00:10:50;73.40;;;29.05;;
54539;SDS011;40438;52.992;18.604;2022-11-02T00:13:19;71.68;;;27.90;;
54539;SDS011;40438;52.992;18.604;2022-11-02T00:15:45;65.15;;;27.08;;
54539;SDS011;40438;52.992;18.604;2022-11-02T00:18:11;67.93;;;27.67;;
54539;SDS011;40438;52.992;18.604;2022-11-02T00:20:39;66.60;;;27.58;;
54539;SDS011;40438;52.992;18.604;2022-11-02T00:23:07;61.72;;;26.98;;
54539;SDS011;40438;52.992;18.604;2022-11-02T00:25:36;68.07;;;26.95;;
54539;SDS011;40438;52.992;18.604;2022-11-02T00:28:05;64.20;;;26.90;;
54539;SDS011;40438;52.992;18.604;2022-11-02T00:30:33;65.35;;;27.42;;
54539;SDS011;40438;52.992;18.604;2022-11-02T00:32:59;59.05;;;26.27;;
54539;SDS011;40438;52.992;18.604;2022-11-02T00:35:26;62.33;;;26.15;;
54539;SDS011;40438;52.992;18.604;2022-11-02T00:37:52;62.08;;;24.67;;
54539;SDS011;40438;52.992;18.604;2022-11-02T00:40:18;57.13;;;25.92;;
54539;SDS011;40438;52.992;18.604;2022-11-02T00:42:44;68.32;;;26.90;;
54539;SDS011;40438;52.992;18.604;2022-11-02T00:45:09;62.63;;;25.67;;
54539;SDS011;40438;52.992;18.604;2022-11-02T00:47:37;61.78;;;26.10;;
54539;SDS011;40438;52.992;18.604;2022-11-02T00:50:03;60.97;;;25.42;;
54539;SDS011;40438;52.992;18.604;2022-11-02T00:52:32;61.38;;;25.92;;
54539;SDS011;40438;52.992;18.604;2022-11-02T00:54:57;58.00;;;24.30;;
54539;SDS011;40438;52.992;18.604;2022-11-02T00:57:23;64.50;;;26.50;;
54539;SDS011;40438;52.992;18.604;2022-11-02T00:59:49;61.50;;;25.23;;
54539;SDS011;40438;52.992;18.604;2022-11-02T01:02:15;56.13;;;25.00;;
54539;SDS011;40438;52.992;18.604;2022-11-02T01:04:42;62.28;;;26.35;;
54539;SDS011;40438;52.992;18.604;2022-11-02T01:07:08;61.25;;;25.48;;
54539;SDS011;40438;52.992;18.604;2022-11-02T01:09:35;62.92;;;26.35;;
54539;SDS011;40438;52.992;18.604;2022-11-02T01:12:00;60.00;;;24.90;;
54539;SDS011;40438;52.992;18.604;2022-11-02T01:14:26;61.80;;;25.27;;
54539;SDS011;40438;52.992;18.604;2022-11-02T01:16:52;64.30;;;26.60;;
54539;SDS011;40438;52.992;18.604;2022-11-02T01:19:18;61.30;;;25.60;;
54539;SDS011;40438;52.992;18.604;2022-11-02T01:21:45;61.50;;;26.00;;
54539;SDS011;40438;52.992;18.604;2022-11-02T01:24:11;69.57;;;25.20;;
54539;SDS011;40438;52.992;18.604;2022-11-02T01:26:36;57.38;;;24.85;;
54539;SDS011;40438;52.992;18.604;2022-11-02T01:29:02;56.83;;;25.55;;
54539;SDS011;40438;52.992;18.604;2022-11-02T01:31:28;61.88;;;24.25;;
54539;SDS011;40438;52.992;18.604;2022-11-02T01:33:54;54.38;;;26.08;;
54539;SDS011;40438;52.992;18.604;2022-11-02T01:36:19;64.90;;;26.42;;
54539;SDS011;40438;52.992;18.604;2022-11-02T01:38:47;54.72;;;22.70;;
54539;SDS011;40438;52.992;18.604;2022-11-02T01:41:14;60.05;;;24.38;;
54539;SDS011;40438;52.992;18.604;2022-11-02T01:43:40;62.13;;;24.25;;
54539;SDS011;40438;52.992;18.604;2022-11-02T01:46:11;59.28;;;24.80;;
54539;SDS011;40438;52.992;18.604;2022-11-02T01:48:43;59.72;;;25.02;;
54539;SDS011;40438;52.992;18.604;2022-11-02T01:51:13;61.90;;;25.88;;
54539;SDS011;40438;52.992;18.604;2022-11-02T01:53:44;58.13;;;24.93;;
54539;SDS011;40438;52.992;18.604;2022-11-02T01:56:14;63.72;;;26.13;;
54539;SDS011;40438;52.992;18.604;2022-11-02T01:58:42;66.53;;;26.65;;
54539;SDS011;40438;52.992;18.604;2022-11-02T02:01:11;67.80;;;26.95;;
54539;SDS011;40438;52.992;18.604;2022-11-02T02:03:37;64.05;;;26.02;;
54539;SDS011;40438;52.992;18.604;2022-11-02T02:06:08;66.50;;;26.92;;
54539;SDS011;40438;52.992;18.604;2022-11-02T02:08:39;61.33;;;24.73;;
54539;SDS011;40438;52.992;18.604;2022-11-02T02:11:27;55.20;;;24.75;;
54539;SDS011;40438;52.992;18.604;2022-11-02T02:13:55;60.40;;;24.88;;
54539;SDS011;40438;52.992;18.604;2022-11-02T02:16:27;55.08;;;21.88;;
54539;SDS011;40438;52.992;18.604;2022-11-02T02:19:05;73.10;;;23.20;;
54539;SDS011;40438;52.992;18.604;2022-11-02T02:21:41;46.85;;;22.48;;
54539;SDS011;40438;52.992;18.604;2022-11-02T02:24:20;56.28;;;23.00;;
54539;SDS011;40438;52.992;18.604;2022-11-02T02:29:48;54.17;;;22.33;;
54539;SDS011;40438;52.992;18.604;2022-11-02T02:32:20;52.03;;;22.13;;
54539;SDS011;40438;52.992;18.604;2022-11-02T02:37:20;57.00;;;23.10;;
54539;SDS011;40438;52.992;18.604;2022-11-02T02:39:51;55.00;;;23.60;;
54539;SDS011;40438;52.992;18.604;2022-11-02T02:42:24;61.10;;;24.05;;
54539;SDS011;40438;52.992;18.604;2022-11-02T02:44:58;52.60;;;24.30;;
54539;SDS011;40438;52.992;18.604;2022-11-02T02:47:31;57.10;;;24.40;;
54539;SDS011;40438;52.992;18.604;2022-11-02T02:50:01;49.40;;;23.52;;
54539;SDS011;40438;52.992;18.604;2022-11-02T02:52:31;58.87;;;25.20;;
54539;SDS011;40438;52.992;18.604;2022-11-02T02:55:01;58.03;;;23.95;;
54539;SDS011;40438;52.992;18.604;2022-11-02T02:57:29;53.30;;;22.77;;
54539;SDS011;40438;52.992;18.604;2022-11-02T03:00:00;53.17;;;23.05;;
54539;SDS011;40438;52.992;18.604;2022-11-02T03:02:30;51.90;;;22.33;;
54539;SDS011;40438;52.992;18.604;2022-11-02T03:05:00;50.42;;;21.65;;
54539;SDS011;40438;52.992;18.604;2022-11-02T03:07:27;53.90;;;22.08;;
54539;SDS011;40438;52.992;18.604;2022-11-02T03:09:58;38.38;;;18.73;;
54539;SDS011;40438;52.992;18.604;2022-11-02T03:12:32;50.50;;;21.27;;
54539;SDS011;40438;52.992;18.604;2022-11-02T03:15:12;51.45;;;20.92;;
54539;SDS011;40438;52.992;18.604;2022-11-02T03:17:44;50.05;;;21.27;;
54539;SDS011;40438;52.992;18.604;2022-11-02T03:20:21;54.67;;;21.55;;
54539;SDS011;40438;52.992;18.604;2022-11-02T03:22:56;44.85;;;21.67;;
54539;SDS011;40438;52.992;18.604;2022-11-02T03:25:34;53.17;;;20.50;;
54539;SDS011;40438;52.992;18.604;2022-11-02T03:28:08;48.45;;;21.48;;
54539;SDS011;40438;52.992;18.604;2022-11-02T03:30:42;58.73;;;21.57;;
54539;SDS011;40438;52.992;18.604;2022-11-02T03:33:13;51.25;;;21.73;;
54539;SDS011;40438;52.992;18.604;2022-11-02T03:35:46;49.00;;;19.80;;
54539;SDS011;40438;52.992;18.604;2022-11-02T03:38:16;47.50;;;20.42;;
54539;SDS011;40438;52.992;18.604;2022-11-02T03:40:47;45.95;;;20.52;;
54539;SDS011;40438;52.992;18.604;2022-11-02T03:43:17;52.03;;;20.38;;
54539;SDS011;40438;52.992;18.604;2022-11-02T03:45:47;49.53;;;21.45;;
54539;SDS011;40438;52.992;18.604;2022-11-02T03:48:16;48.63;;;21.85;;
54539;SDS011;40438;52.992;18.604;2022-11-02T03:50:44;51.97;;;21.83;;
54539;SDS011;40438;52.992;18.604;2022-11-02T03:53:15;51.35;;;22.00;;
54539;SDS011;40438;52.992;18.604;2022-11-02T03:55:48;48.38;;;21.30;;
54539;SDS011;40438;52.992;18.604;2022-11-02T03:58:17;46.50;;;20.25;;
54539;SDS011;40438;52.992;18.604;2022-11-02T04:00:44;45.90;;;22.52;;
54539;SDS011;40438;52.992;18.604;2022-11-02T04:03:16;43.17;;;20.13;;
54539;SDS011;40438;52.992;18.604;2022-11-02T04:05:43;46.63;;;21.48;;
54539;SDS011;40438;52.992;18.604;2022-11-02T04:08:21;47.38;;;21.48;;
54539;SDS011;40438;52.992;18.604;2022-11-02T04:10:58;46.65;;;23.85;;
54539;SDS011;40438;52.992;18.604;2022-11-02T04:13:24;50.50;;;24.02;;
54539;SDS011;40438;52.992;18.604;2022-11-02T04:15:52;53.05;;;23.67;;
54539;SDS011;40438;52.992;18.604;2022-11-02T04:18:17;53.05;;;23.83;;
54539;SDS011;40438;52.992;18.604;2022-11-02T04:20:48;52.28;;;21.98;;
54539;SDS011;40438;52.992;18.604;2022-11-02T04:23:13;50.25;;;21.65;;
54539;SDS011;40438;52.992;18.604;2022-11-02T04:25:41;57.40;;;22.02;;
54539;SDS011;40438;52.992;18.604;2022-11-02T04:28:13;49.85;;;21.00;;
54539;SDS011;40438;52.992;18.604;2022-11-02T04:30:46;52.83;;;21.88;;
54539;SDS011;40438;52.992;18.604;2022-11-02T04:33:14;47.30;;;21.08;;
54539;SDS011;40438;52.992;18.604;2022-11-02T04:35:47;46.92;;;21.33;;
54539;SDS011;40438;52.992;18.604;2022-11-02T04:38:13;57.13;;;22.33;;
54539;SDS011;40438;52.992;18.604;2022-11-02T04:40:39;53.80;;;22.20;;
54539;SDS011;40438;52.992;18.604;2022-11-02T04:43:06;57.15;;;22.05;;
54539;SDS011;40438;52.992;18.604;2022-11-02T04:45:33;50.55;;;21.25;;
54539;SDS011;40438;52.992;18.604;2022-11-02T04:47:59;53.58;;;21.13;;
54539;SDS011;40438;52.992;18.604;2022-11-02T04:50:27;59.72;;;22.65;;
54539;SDS011;40438;52.992;18.604;2022-11-02T04:52:54;57.42;;;21.55;;
54539;SDS011;40438;52.992;18.604;2022-11-02T04:55:20;56.10;;;20.60;;
54539;SDS011;40438;52.992;18.604;2022-11-02T04:57:46;51.00;;;20.83;;
54539;SDS011;40438;52.992;18.604;2022-11-02T05:00:13;49.70;;;20.25;;
54539;SDS011;40438;52.992;18.604;2022-11-02T05:02:40;51.00;;;20.98;;
54539;SDS011;40438;52.992;18.604;2022-11-02T05:05:06;53.58;;;20.95;;
54539;SDS011;40438;52.992;18.604;2022-11-02T05:07:34;55.83;;;21.80;;
54539;SDS011;40438;52.992;18.604;2022-11-02T05:10:00;52.58;;;20.67;;
54539;SDS011;40438;52.992;18.604;2022-11-02T05:12:25;47.97;;;20.23;;
54539;SDS011;40438;52.992;18.604;2022-11-02T05:14:51;57.70;;;20.58;;
54539;SDS011;40438;52.992;18.604;2022-11-02T05:17:17;53.83;;;19.55;;
54539;SDS011;40438;52.992;18.604;2022-11-02T05:19:43;53.33;;;20.35;;
54539;SDS011;40438;52.992;18.604;2022-11-02T05:22:09;48.08;;;19.50;;
54539;SDS011;40438;52.992;18.604;2022-11-02T05:24:36;60.60;;;22.98;;
54539;SDS011;40438;52.992;18.604;2022-11-02T05:27:04;60.92;;;21.55;;
54539;SDS011;40438;52.992;18.604;2022-11-02T05:29:32;56.35;;;20.77;;
54539;SDS011;40438;52.992;18.604;2022-11-02T05:31:58;60.20;;;21.30;;
54539;SDS011;40438;52.992;18.604;2022-11-02T05:34:24;52.75;;;19.88;;
54539;SDS011;40438;52.992;18.604;2022-11-02T05:36:51;54.20;;;20.70;;
54539;SDS011;40438;52.992;18.604;2022-11-02T05:39:16;49.03;;;19.80;;
54539;SDS011;40438;52.992;18.604;2022-11-02T05:41:44;61.67;;;22.20;;
54539;SDS011;40438;52.992;18.604;2022-11-02T05:44:09;66.32;;;22.58;;
54539;SDS011;40438;52.992;18.604;2022-11-02T05:46:37;60.90;;;22.50;;
54539;SDS011;40438;52.992;18.604;2022-11-02T05:49:03;60.25;;;21.80;;
54539;SDS011;40438;52.992;18.604;2022-11-02T05:51:29;61.90;;;23.25;;
54539;SDS011;40438;52.992;18.604;2022-11-02T05:53:55;59.50;;;21.85;;
54539;SDS011;40438;52.992;18.604;2022-11-02T05:56:20;49.03;;;21.33;;
54539;SDS011;40438;52.992;18.604;2022-11-02T05:58:48;50.42;;;18.92;;
54539;SDS011;40438;52.992;18.604;2022-11-02T06:01:15;49.38;;;19.58;;
54539;SDS011;40438;52.992;18.604;2022-11-02T06:03:40;47.35;;;19.75;;
54539;SDS011;40438;52.992;18.604;2022-11-02T06:06:08;47.33;;;19.40;;
54539;SDS011;40438;52.992;18.604;2022-11-02T06:08:35;55.50;;;17.95;;
54539;SDS011;40438;52.992;18.604;2022-11-02T06:11:05;42.40;;;17.63;;
54539;SDS011;40438;52.992;18.604;2022-11-02T06:13:31;50.95;;;18.63;;
54539;SDS011;40438;52.992;18.604;2022-11-02T06:15:59;40.72;;;16.63;;
54539;SDS011;40438;52.992;18.604;2022-11-02T06:18:25;43.42;;;18.35;;
54539;SDS011;40438;52.992;18.604;2022-11-02T06:20:50;41.30;;;17.60;;
54539;SDS011;40438;52.992;18.604;2022-11-02T06:23:16;39.33;;;16.20;;
54539;SDS011;40438;52.992;18.604;2022-11-02T06:25:42;36.47;;;15.85;;
54539;SDS011;40438;52.992;18.604;2022-11-02T06:28:08;40.58;;;15.32;;
54539;SDS011;40438;52.992;18.604;2022-11-02T06:30:34;33.55;;;16.48;;
54539;SDS011;40438;52.992;18.604;2022-11-02T06:33:01;32.28;;;15.10;;
54539;SDS011;40438;52.992;18.604;2022-11-02T06:35:27;31.98;;;14.70;;
54539;SDS011;40438;52.992;18.604;2022-11-02T06:37:52;31.35;;;14.02;;
54539;SDS011;40438;52.992;18.604;2022-11-02T06:40:18;31.30;;;14.65;;
54539;SDS011;40438;52.992;18.604;2022-11-02T06:42:44;36.95;;;14.85;;
54539;SDS011;40438;52.992;18.604;2022-11-02T06:45:10;29.23;;;14.48;;
54539;SDS011;40438;52.992;18.604;2022-11-02T06:47:36;32.70;;;14.65;;
54539;SDS011;40438;52.992;18.604;2022-11-02T06:50:04;32.20;;;14.00;;
54539;SDS011;40438;52.992;18.604;2022-11-02T06:52:30;38.17;;;14.70;;
54539;SDS011;40438;52.992;18.604;2022-11-02T06:54:56;37.90;;;14.35;;
54539;SDS011;40438;52.992;18.604;2022-11-02T06:57:22;34.92;;;14.15;;
54539;SDS011;40438;52.992;18.604;2022-11-02T06:59:48;29.67;;;13.38;;
54539;SDS011;40438;52.992;18.604;2022-11-02T07:02:13;36.78;;;14.32;;
54539;SDS011;40438;52.992;18.604;2022-11-02T07:04:39;33.85;;;13.15;;
54539;SDS011;40438;52.992;18.604;2022-11-02T07:07:06;37.85;;;14.00;;
54539;SDS011;40438;52.992;18.604;2022-11-02T07:09:32;37.42;;;14.15;;
54539;SDS011;40438;52.992;18.604;2022-11-02T07:11:58;33.22;;;13.13;;
54539;SDS011;40438;52.992;18.604;2022-11-02T07:14:23;37.10;;;13.50;;
54539;SDS011;40438;52.992;18.604;2022-11-02T07:16:49;35.13;;;13.90;;
54539;SDS011;40438;52.992;18.604;2022-11-02T07:19:15;34.92;;;13.73;;
54539;SDS011;40438;52.992;18.604;2022-11-02T07:21:41;34.15;;;12.80;;
54539;SDS011;40438;52.992;18.604;2022-11-02T07:24:08;31.92;;;13.32;;
54539;SDS011;40438;52.992;18.604;2022-11-02T07:26:34;37.83;;;14.15;;
54539;SDS011;40438;52.992;18.604;2022-11-02T07:28:59;36.25;;;13.35;;
54539;SDS011;40438;52.992;18.604;2022-11-02T07:31:25;27.42;;;12.68;;
54539;SDS011;40438;52.992;18.604;2022-11-02T07:33:51;28.10;;;12.95;;
54539;SDS011;40438;52.992;18.604;2022-11-02T07:36:16;29.00;;;12.68;;
54539;SDS011;40438;52.992;18.604;2022-11-02T07:38:42;29.65;;;12.45;;
54539;SDS011;40438;52.992;18.604;2022-11-02T07:41:09;29.75;;;12.00;;
54539;SDS011;40438;52.992;18.604;2022-11-02T07:43:35;25.55;;;11.00;;
54539;SDS011;40438;52.992;18.604;2022-11-02T07:46:14;27.55;;;11.43;;
54539;SDS011;40438;52.992;18.604;2022-11-02T07:48:40;27.77;;;11.77;;
54539;SDS011;40438;52.992;18.604;2022-11-02T07:51:06;25.35;;;10.65;;
54539;SDS011;40438;52.992;18.604;2022-11-02T07:53:32;29.35;;;10.63;;
54539;SDS011;40438;52.992;18.604;2022-11-02T07:55:58;24.95;;;10.88;;
54539;SDS011;40438;52.992;18.604;2022-11-02T07:58:25;24.42;;;10.38;;
54539;SDS011;40438;52.992;18.604;2022-11-02T08:00:51;27.60;;;11.15;;
54539;SDS011;40438;52.992;18.604;2022-11-02T08:03:17;31.45;;;12.52;;
54539;SDS011;40438;52.992;18.604;2022-11-02T08:05:42;34.15;;;13.95;;
54539;SDS011;40438;52.992;18.604;2022-11-02T08:08:09;36.63;;;12.88;;
54539;SDS011;40438;52.992;18.604;2022-11-02T08:10:36;36.15;;;13.25;;
54539;SDS011;40438;52.992;18.604;2022-11-02T08:13:02;33.38;;;13.38;;
54539;SDS011;40438;52.992;18.604;2022-11-02T08:15:29;32.92;;;13.70;;
54539;SDS011;40438;52.992;18.604;2022-11-02T08:17:59;37.38;;;13.93;;
54539;SDS011;40438;52.992;18.604;2022-11-02T08:20:25;36.63;;;13.75;;
54539;SDS011;40438;52.992;18.604;2022-11-02T08:22:50;37.15;;;14.15;;
54539;SDS011;40438;52.992;18.604;2022-11-02T08:25:16;40.05;;;15.68;;
54539;SDS011;40438;52.992;18.604;2022-11-02T08:27:42;38.13;;;15.10;;
54539;SDS011;40438;52.992;18.604;2022-11-02T08:30:08;41.63;;;16.00;;
54539;SDS011;40438;52.992;18.604;2022-11-02T08:32:36;46.95;;;17.73;;
54539;SDS011;40438;52.992;18.604;2022-11-02T08:35:02;42.08;;;15.93;;
54539;SDS011;40438;52.992;18.604;2022-11-02T08:37:28;49.97;;;17.17;;
54539;SDS011;40438;52.992;18.604;2022-11-02T08:39:54;52.15;;;20.05;;
54539;SDS011;40438;52.992;18.604;2022-11-02T08:42:19;43.75;;;18.67;;
54539;SDS011;40438;52.992;18.604;2022-11-02T08:44:45;43.13;;;16.63;;
54539;SDS011;40438;52.992;18.604;2022-11-02T08:47:11;41.30;;;17.40;;
54539;SDS011;40438;52.992;18.604;2022-11-02T08:49:38;43.03;;;18.25;;
54539;SDS011;40438;52.992;18.604;2022-11-02T08:52:04;40.92;;;16.65;;
54539;SDS011;40438;52.992;18.604;2022-11-02T08:54:30;37.83;;;15.38;;
54539;SDS011;40438;52.992;18.604;2022-11-02T08:56:55;30.90;;;13.80;;
54539;SDS011;40438;52.992;18.604;2022-11-02T08:59:21;31.95;;;13.60;;
54539;SDS011;40438;52.992;18.604;2022-11-02T09:01:47;28.88;;;13.82;;
54539;SDS011;40438;52.992;18.604;2022-11-02T09:04:12;32.38;;;13.27;;
54539;SDS011;40438;52.992;18.604;2022-11-02T09:06:40;26.80;;;12.27;;
54539;SDS011;40438;52.992;18.604;2022-11-02T09:09:05;31.20;;;13.18;;
54539;SDS011;40438;52.992;18.604;2022-11-02T09:11:31;27.58;;;12.65;;
54539;SDS011;40438;52.992;18.604;2022-11-02T09:13:57;28.45;;;12.65;;
54539;SDS011;40438;52.992;18.604;2022-11-02T09:16:22;32.47;;;14.02;;
54539;SDS011;40438;52.992;18.604;2022-11-02T09:18:48;30.65;;;13.50;;
54539;SDS011;40438;52.992;18.604;2022-11-02T09:21:14;30.25;;;13.15;;
54539;SDS011;40438;52.992;18.604;2022-11-02T09:23:41;29.35;;;12.23;;
54539;SDS011;40438;52.992;18.604;2022-11-02T09:26:07;31.90;;;12.32;;
54539;SDS011;40438;52.992;18.604;2022-11-02T09:28:32;25.25;;;12.10;;
54539;SDS011;40438;52.992;18.604;2022-11-02T09:30:58;25.90;;;11.30;;
54539;SDS011;40438;52.992;18.604;2022-11-02T09:33:24;26.80;;;11.82;;
54539;SDS011;40438;52.992;18.604;2022-11-02T09:35:50;25.80;;;11.63;;
54539;SDS011;40438;52.992;18.604;2022-11-02T09:38:16;20.63;;;10.75;;
54539;SDS011;40438;52.992;18.604;2022-11-02T09:40:44;24.63;;;11.52;;
54539;SDS011;40438;52.992;18.604;2022-11-02T09:43:16;20.75;;;9.90;;
54539;SDS011;40438;52.992;18.604;2022-11-02T09:45:54;27.52;;;11.13;;
54539;SDS011;40438;52.992;18.604;2022-11-02T09:48:25;19.13;;;9.70;;
54539;SDS011;40438;52.992;18.604;2022-11-02T09:50:54;19.98;;;8.95;;
54539;SDS011;40438;52.992;18.604;2022-11-02T09:53:28;20.08;;;10.60;;
54539;SDS011;40438;52.992;18.604;2022-11-02T09:56:05;18.98;;;9.43;;
54539;SDS011;40438;52.992;18.604;2022-11-02T09:58:35;21.38;;;10.32;;
54539;SDS011;40438;52.992;18.604;2022-11-02T10:01:04;18.13;;;9.55;;
54539;SDS011;40438;52.992;18.604;2022-11-02T10:03:40;19.17;;;10.20;;
54539;SDS011;40438;52.992;18.604;2022-11-02T10:06:16;16.38;;;10.10;;
54539;SDS011;40438;52.992;18.604;2022-11-02T10:08:47;20.17;;;9.98;;
54539;SDS011;40438;52.992;18.604;2022-11-02T10:11:28;21.00;;;10.43;;
54539;SDS011;40438;52.992;18.604;2022-11-02T10:16:33;20.40;;;9.35;;
54539;SDS011;40438;52.992;18.604;2022-11-02T10:19:02;17.60;;;9.50;;
54539;SDS011;40438;52.992;18.604;2022-11-02T10:21:35;23.87;;;10.10;;
54539;SDS011;40438;52.992;18.604;2022-11-02T10:24:07;19.75;;;9.48;;
54539;SDS011;40438;52.992;18.604;2022-11-02T10:26:43;15.73;;;8.85;;
54539;SDS011;40438;52.992;18.604;2022-11-02T10:29:12;25.85;;;11.02;;
54539;SDS011;40438;52.992;18.604;2022-11-02T10:34:11;24.60;;;10.30;;
54539;SDS011;40438;52.992;18.604;2022-11-02T10:36:46;27.98;;;11.55;;
54539;SDS011;40438;52.992;18.604;2022-11-02T10:39:20;24.25;;;11.48;;
54539;SDS011;40438;52.992;18.604;2022-11-02T10:45:00;21.20;;;10.07;;
54539;SDS011;40438;52.992;18.604;2022-11-02T10:47:32;22.75;;;9.98;;
54539;SDS011;40438;52.992;18.604;2022-11-02T10:50:09;18.75;;;9.95;;
54539;SDS011;40438;52.992;18.604;2022-11-02T10:52:42;16.23;;;9.07;;
54539;SDS011;40438;52.992;18.604;2022-11-02T10:55:12;14.40;;;9.05;;
54539;SDS011;40438;52.992;18.604;2022-11-02T10:57:46;19.60;;;9.45;;
54539;SDS011;40438;52.992;18.604;2022-11-02T11:00:23;20.50;;;9.27;;
54539;SDS011;40438;52.992;18.604;2022-11-02T11:03:03;14.68;;;9.45;;
54539;SDS011;40438;52.992;18.604;2022-11-02T11:05:30;19.10;;;8.80;;
54539;SDS011;40438;52.992;18.604;2022-11-02T11:07:57;19.88;;;9.63;;
54539;SDS011;40438;52.992;18.604;2022-11-02T11:10:23;15.88;;;8.88;;
54539;SDS011;40438;52.992;18.604;2022-11-02T11:12:50;16.95;;;9.15;;
54539;SDS011;40438;52.992;18.604;2022-11-02T11:15:20;14.73;;;8.75;;
54539;SDS011;40438;52.992;18.604;2022-11-02T11:17:47;16.63;;;9.23;;
54539;SDS011;40438;52.992;18.604;2022-11-02T11:20:25;18.35;;;9.23;;
54539;SDS011;40438;52.992;18.604;2022-11-02T11:23:06;18.25;;;8.82;;
54539;SDS011;40438;52.992;18.604;2022-11-02T11:25:42;21.77;;;8.80;;
54539;SDS011;40438;52.992;18.604;2022-11-02T11:28:23;16.70;;;9.15;;
54539;SDS011;40438;52.992;18.604;2022-11-02T11:31:00;17.67;;;9.35;;
54539;SDS011;40438;52.992;18.604;2022-11-02T11:33:29;16.70;;;9.30;;
54539;SDS011;40438;52.992;18.604;2022-11-02T11:35:57;14.80;;;8.45;;
54539;SDS011;40438;52.992;18.604;2022-11-02T11:38:23;16.60;;;9.27;;
54539;SDS011;40438;52.992;18.604;2022-11-02T11:40:51;14.77;;;8.63;;
54539;SDS011;40438;52.992;18.604;2022-11-02T11:43:19;14.38;;;8.38;;
54539;SDS011;40438;52.992;18.604;2022-11-02T11:45:54;13.98;;;8.30;;
54539;SDS011;40438;52.992;18.604;2022-11-02T11:48:23;13.73;;;8.23;;
54539;SDS011;40438;52.992;18.604;2022-11-02T11:50:55;18.25;;;8.65;;
54539;SDS011;40438;52.992;18.604;2022-11-02T11:53:21;14.38;;;7.80;;
54539;SDS011;40438;52.992;18.604;2022-11-02T11:55:49;14.50;;;7.60;;
54539;SDS011;40438;52.992;18.604;2022-11-02T11:58:17;15.65;;;7.22;;
54539;SDS011;40438;52.992;18.604;2022-11-02T12:00:45;17.17;;;7.53;;
54539;SDS011;40438;52.992;18.604;2022-11-02T12:03:28;11.73;;;7.25;;
54539;SDS011;40438;52.992;18.604;2022-11-02T12:05:56;10.82;;;7.15;;
54539;SDS011;40438;52.992;18.604;2022-11-02T12:08:32;13.65;;;7.10;;
54539;SDS011;40438;52.992;18.604;2022-11-02T12:11:20;11.70;;;6.47;;
54539;SDS011;40438;52.992;18.604;2022-11-02T12:14:01;11.98;;;7.20;;
54539;SDS011;40438;52.992;18.604;2022-11-02T12:16:46;11.77;;;6.63;;
54539;SDS011;40438;52.992;18.604;2022-11-02T12:19:31;14.10;;;6.60;;
54539;SDS011;40438;52.992;18.604;2022-11-02T12:22:09;11.43;;;6.72;;
54539;SDS011;40438;52.992;18.604;2022-11-02T12:27:43;9.05;;;6.05;;
54539;SDS011;40438;52.992;18.604;2022-11-02T12:30:14;9.57;;;6.10;;
54539;SDS011;40438;52.992;18.604;2022-11-02T12:32:54;16.17;;;6.97;;
54539;SDS011;40438;52.992;18.604;2022-11-02T12:38:33;8.20;;;5.60;;
54539;SDS011;40438;52.992;18.604;2022-11-02T12:41:09;11.18;;;5.68;;
54539;SDS011;40438;52.992;18.604;2022-11-02T12:43:37;14.27;;;6.00;;
54539;SDS011;40438;52.992;18.604;2022-11-02T12:46:15;13.52;;;6.20;;
54539;SDS011;40438;52.992;18.604;2022-11-02T12:49:00;11.00;;;6.20;;
54539;SDS011;40438;52.992;18.604;2022-11-02T12:51:36;8.95;;;5.32;;
54539;SDS011;40438;52.992;18.604;2022-11-02T12:54:09;11.88;;;5.55;;
54539;SDS011;40438;52.992;18.604;2022-11-02T12:56:39;10.23;;;5.30;;
54539;SDS011;40438;52.992;18.604;2022-11-02T12:59:10;8.07;;;4.15;;
54539;SDS011;40438;52.992;18.604;2022-11-02T13:01:43;21.20;;;10.13;;
54539;SDS011;40438;52.992;18.604;2022-11-02T13:04:12;37.03;;;17.00;;
54539;SDS011;40438;52.992;18.604;2022-11-02T13:06:44;24.92;;;11.40;;
54539;SDS011;40438;52.992;18.604;2022-11-02T13:09:14;13.65;;;6.82;;
54539;SDS011;40438;52.992;18.604;2022-11-02T13:11:47;8.93;;;3.97;;
54539;SDS011;40438;52.992;18.604;2022-11-02T13:14:18;8.50;;;4.13;;
54539;SDS011;40438;52.992;18.604;2022-11-02T13:16:47;8.48;;;3.13;;
54539;SDS011;40438;52.992;18.604;2022-11-02T13:19:19;5.88;;;2.60;;
54539;SDS011;40438;52.992;18.604;2022-11-02T13:21:48;5.35;;;2.30;;
54539;SDS011;40438;52.992;18.604;2022-11-02T13:24:18;9.15;;;2.40;;
54539;SDS011;40438;52.992;18.604;2022-11-02T13:26:46;7.65;;;2.40;;
54539;SDS011;40438;52.992;18.604;2022-11-02T13:29:15;7.35;;;2.38;;
54539;SDS011;40438;52.992;18.604;2022-11-02T13:31:45;6.57;;;2.65;;
54539;SDS011;40438;52.992;18.604;2022-11-02T13:34:17;7.30;;;2.30;;
54539;SDS011;40438;52.992;18.604;2022-11-02T13:36:52;5.82;;;2.47;;
54539;SDS011;40438;52.992;18.604;2022-11-02T13:39:19;6.90;;;2.40;;
54539;SDS011;40438;52.992;18.604;2022-11-02T13:42:01;10.48;;;2.63;;
54539;SDS011;40438;52.992;18.604;2022-11-02T13:44:52;3.33;;;1.90;;
54539;SDS011;40438;52.992;18.604;2022-11-02T13:47:44;4.63;;;2.08;;
54539;SDS011;40438;52.992;18.604;2022-11-02T13:50:24;6.72;;;2.10;;
54539;SDS011;40438;52.992;18.604;2022-11-02T13:52:55;5.88;;;2.58;;
54539;SDS011;40438;52.992;18.604;2022-11-02T13:55:23;8.43;;;2.22;;
54539;SDS011;40438;52.992;18.604;2022-11-02T13:57:57;6.45;;;2.42;;
54539;SDS011;40438;52.992;18.604;2022-11-02T14:00:27;7.78;;;1.95;;
54539;SDS011;40438;52.992;18.604;2022-11-02T14:02:56;10.07;;;2.23;;
54539;SDS011;40438;52.992;18.604;2022-11-02T14:05:28;5.00;;;2.08;;
54539;SDS011;40438;52.992;18.604;2022-11-02T14:07:58;5.40;;;2.22;;
54539;SDS011;40438;52.992;18.604;2022-11-02T14:10:25;6.47;;;2.08;;
54539;SDS011;40438;52.992;18.604;2022-11-02T14:12:54;7.07;;;2.30;;
54539;SDS011;40438;52.992;18.604;2022-11-02T14:15:36;7.47;;;2.03;;
54539;SDS011;40438;52.992;18.604;2022-11-02T14:18:06;7.00;;;2.10;;
54539;SDS011;40438;52.992;18.604;2022-11-02T14:20:39;4.72;;;2.10;;
54539;SDS011;40438;52.992;18.604;2022-11-02T14:26:03;4.63;;;2.03;;
54539;SDS011;40438;52.992;18.604;2022-11-02T14:28:32;3.75;;;1.88;;
54539;SDS011;40438;52.992;18.604;2022-11-02T14:34:09;8.68;;;2.53;;
54539;SDS011;40438;52.992;18.604;2022-11-02T14:36:52;6.65;;;2.70;;
54539;SDS011;40438;52.992;18.604;2022-11-02T14:39:29;11.73;;;3.13;;
54539;SDS011;40438;52.992;18.604;2022-11-02T14:42:08;6.95;;;2.55;;
54539;SDS011;40438;52.992;18.604;2022-11-02T14:47:40;16.08;;;2.70;;
54539;SDS011;40438;52.992;18.604;2022-11-02T14:50:07;6.82;;;2.45;;
54539;SDS011;40438;52.992;18.604;2022-11-02T14:52:41;7.95;;;2.22;;
54539;SDS011;40438;52.992;18.604;2022-11-02T14:55:20;8.00;;;2.22;;